Time;durP1;ratioP1;P1;durP2;ratioP2;P2;SDS_P1;SDS_P2;PMS_P1;PMS_P2;Temp;Humidity;BMP_temperature;BMP_pressure;BME280_temperature;BME280_humidity;BME280_pressure;Samples;Min_cycle;Max_cycle;Signal;HPM_P1;HPM_P2
2023/10/19 00:00:18;;;;;;;2.37;1.53;;;22.90;66.20;;;;;;5035390;28;20470;-95
2023/10/19 00:02:46;;;;;;;2.00;1.90;;;22.90;66.20;;;;;;5035102;28;20434;-95
2023/10/19 00:05:16;;;;;;;2.87;2.10;;;22.90;66.20;;;;;;5034449;28;20477;-86
2023/10/19 00:07:43;;;;;;;1.60;1.50;;;22.90;66.20;;;;;;5034911;28;20836;-93
2023/10/19 00:10:09;;;;;;;1.77;1.67;;;22.90;66.20;;;;;;5034802;28;20469;-95
2023/10/19 00:12:36;;;;;;;2.77;1.80;;;22.90;66.20;;;;;;5034476;28;20478;-88
2023/10/19 00:15:04;;;;;;;1.53;1.43;;;22.90;66.30;;;;;;5034023;28;20533;-89
2023/10/19 00:17:32;;;;;;;1.70;1.40;;;22.90;66.30;;;;;;5034548;28;20528;-86
2023/10/19 00:20:27;;;;;;;1.63;1.43;;;22.90;66.30;;;;;;5034752;28;20446;-87
2023/10/19 00:22:47;;;;;;;1.60;1.50;;;22.90;66.30;;;;;;5034689;28;20449;-89
2023/10/19 00:25:13;;;;;;;1.67;1.57;;;22.90;66.40;;;;;;5034176;28;20442;-89
2023/10/19 00:27:42;;;;;;;1.73;1.63;;;22.90;66.40;;;;;;5034266;28;20435;-90
2023/10/19 00:30:10;;;;;;;1.73;1.50;;;22.90;66.40;;;;;;5035027;28;20450;-93
2023/10/19 00:32:39;;;;;;;1.37;1.27;;;22.90;66.40;;;;;;5035823;28;20843;-87
2023/10/19 00:35:27;;;;;;;2.17;1.97;;;22.90;66.40;;;;;;5038326;28;20434;-86
2023/10/19 00:38:12;;;;;;;2.03;1.40;;;22.90;66.40;;;;;;5039065;28;20510;-95
2023/10/19 00:40:41;;;;;;;2.03;1.80;;;22.90;66.40;;;;;;5038462;28;20437;-87
2023/10/19 00:43:10;;;;;;;1.60;1.50;;;22.90;66.40;;;;;;5039003;28;20456;-96
2023/10/19 00:45:39;;;;;;;2.13;1.80;;;22.90;66.50;;;;;;5022862;28;20496;-96
2023/10/19 00:48:11;;;;;;;2.10;1.37;;;22.90;66.40;;;;;;5040293;28;20430;-86
2023/10/19 00:50:38;;;;;;;1.60;1.50;;;22.90;66.50;;;;;;5039978;28;20957;-86
2023/10/19 00:53:08;;;;;;;1.40;1.30;;;22.90;66.50;;;;;;5041525;28;20482;-89
2023/10/19 00:55:37;;;;;;;1.70;1.60;;;22.90;66.50;;;;;;5040842;28;20438;-95
2023/10/19 00:58:09;;;;;;;2.27;1.63;;;22.90;66.50;;;;;;5042570;28;20449;-92
2023/10/19 01:00:43;;;;;;;2.17;1.50;;;22.90;66.60;;;;;;5042590;28;20450;-95
2023/10/19 01:03:16;;;;;;;1.53;1.43;;;22.90;66.60;;;;;;5040842;28;20916;-94
2023/10/19 01:05:48;;;;;;;2.60;1.80;;;22.90;66.70;;;;;;5042294;28;20524;-89
2023/10/19 01:08:23;;;;;;;1.40;1.30;;;22.90;66.60;;;;;;5041496;28;20442;-87
2023/10/19 01:10:53;;;;;;;1.80;1.70;;;22.90;66.70;;;;;;5040233;28;20438;-91
2023/10/19 01:13:26;;;;;;;1.57;1.47;;;22.90;66.60;;;;;;5042283;28;20585;-90
2023/10/19 01:15:54;;;;;;;1.60;1.50;;;23.00;66.70;;;;;;5040463;28;20459;-86
2023/10/19 01:18:22;;;;;;;1.23;1.10;;;22.90;66.70;;;;;;5042235;28;20442;-96
2023/10/19 01:20:51;;;;;;;1.93;1.83;;;22.90;66.70;;;;;;5022073;28;20454;-96
2023/10/19 01:23:31;;;;;;;1.60;1.40;;;22.90;66.70;;;;;;5039682;28;20435;-88
2023/10/19 01:26:02;;;;;;;3.30;1.40;;;23.00;66.80;;;;;;5041643;28;20462;-93
2023/10/19 01:28:42;;;;;;;1.60;1.50;;;22.90;66.80;;;;;;5040217;28;20419;-89
2023/10/19 01:31:13;;;;;;;1.50;1.40;;;22.90;66.70;;;;;;5040195;28;20521;-91
2023/10/19 01:33:41;;;;;;;1.43;1.33;;;22.90;66.80;;;;;;5041346;28;20555;-96
2023/10/19 01:36:11;;;;;;;1.50;1.40;;;22.90;66.80;;;;;;5040346;28;20473;-96
2023/10/19 01:38:39;;;;;;;2.50;1.50;;;22.80;66.70;;;;;;5040676;28;20466;-96
2023/10/19 01:41:13;;;;;;;1.60;1.40;;;22.90;66.90;;;;;;5040985;28;20988;-89
2023/10/19 01:43:40;;;;;;;1.40;1.20;;;22.90;66.80;;;;;;5039633;28;20423;-93
2023/10/19 01:46:11;;;;;;;1.60;1.50;;;22.90;66.80;;;;;;5041061;28;20460;-95
2023/10/19 01:48:40;;;;;;;2.00;1.80;;;22.90;66.90;;;;;;5040562;28;20488;-96
2023/10/19 01:51:10;;;;;;;1.37;1.27;;;22.90;66.80;;;;;;5040814;28;20442;-95
2023/10/19 01:53:39;;;;;;;1.73;1.50;;;22.80;66.70;;;;;;5040362;28;20485;-96
2023/10/19 01:56:09;;;;;;;1.60;1.20;;;22.90;66.90;;;;;;5040453;28;20445;-94
2023/10/19 01:58:36;;;;;;;1.60;1.23;;;22.90;66.90;;;;;;5039654;28;20529;-96
2023/10/19 02:01:08;;;;;;;1.87;1.30;;;22.90;66.90;;;;;;5037903;28;20446;-91
2023/10/19 02:03:35;;;;;;;2.70;1.17;;;22.80;66.80;;;;;;5037210;28;20442;-95
2023/10/19 02:06:10;;;;;;;1.23;1.03;;;22.80;66.70;;;;;;5037965;28;20551;-86
2023/10/19 02:08:38;;;;;;;1.73;1.53;;;22.90;66.90;;;;;;5038831;28;20521;-90
2023/10/19 02:11:13;;;;;;;1.67;1.40;;;22.80;66.80;;;;;;5036811;28;20430;-91
2023/10/19 02:13:39;;;;;;;1.50;1.30;;;22.80;66.80;;;;;;5038246;28;20470;-89
2023/10/19 02:16:07;;;;;;;1.83;1.50;;;22.80;66.80;;;;;;5037921;28;20880;-88
2023/10/19 02:18:34;;;;;;;1.60;1.23;;;22.80;66.80;;;;;;5037699;28;20453;-89
2023/10/19 02:21:06;;;;;;;1.90;1.50;;;22.90;67.00;;;;;;5036686;28;20449;-91
2023/10/19 02:23:34;;;;;;;1.70;1.60;;;22.90;67.00;;;;;;5036299;28;20442;-86
2023/10/19 02:26:03;;;;;;;1.30;1.20;;;22.80;66.80;;;;;;5036863;28;20446;-90
2023/10/19 02:28:31;;;;;;;1.40;1.13;;;23.00;67.10;;;;;;5035833;28;20442;-91
2023/10/19 02:31:10;;;;;;;1.40;1.30;;;22.90;67.00;;;;;;5032218;28;20853;-88
2023/10/19 02:33:37;;;;;;;1.90;1.80;;;22.90;67.00;;;;;;5035485;28;21007;-87
2023/10/19 02:36:05;;;;;;;1.50;1.40;;;22.80;66.90;;;;;;5035704;28;20596;-86
2023/10/19 02:38:33;;;;;;;1.70;1.60;;;22.80;67.00;;;;;;5034785;28;20446;-85
2023/10/19 02:41:00;;;;;;;1.43;1.33;;;22.80;66.90;;;;;;5036157;28;20809;-93
2023/10/19 02:43:27;;;;;;;1.33;1.23;;;22.80;66.90;;;;;;5034857;28;20442;-86
2023/10/19 02:45:55;;;;;;;1.63;1.27;;;22.80;66.90;;;;;;5034795;28;20520;-89
2023/10/19 02:48:21;;;;;;;1.60;1.30;;;22.80;66.90;;;;;;5034937;28;20937;-85
2023/10/19 02:50:49;;;;;;;1.30;1.20;;;22.80;66.90;;;;;;5034874;28;20521;-86
2023/10/19 02:53:14;;;;;;;1.50;1.40;;;22.80;66.90;;;;;;5034652;28;20265;-86
2023/10/19 02:55:41;;;;;;;1.60;1.50;;;22.80;67.00;;;;;;5034347;28;20442;-86
2023/10/19 02:58:07;;;;;;;3.67;1.30;;;22.80;66.90;;;;;;5035395;28;20570;-92
2023/10/19 03:00:39;;;;;;;1.50;1.40;;;22.80;67.00;;;;;;5034492;28;20444;-86
2023/10/19 03:03:06;;;;;;;1.37;1.27;;;22.90;67.10;;;;;;5034444;28;20664;-85
2023/10/19 03:05:34;;;;;;;1.40;1.30;;;22.80;67.00;;;;;;5033941;28;20480;-86
2023/10/19 03:08:05;;;;;;;1.50;1.40;;;22.80;67.00;;;;;;5034265;28;20517;-86
2023/10/19 03:10:41;;;;;;;1.33;1.23;;;22.80;67.00;;;;;;5034488;28;20438;-86
2023/10/19 03:13:07;;;;;;;1.40;1.30;;;22.80;67.00;;;;;;5034349;28;20486;-85
2023/10/19 03:15:39;;;;;;;1.50;1.40;;;22.80;67.00;;;;;;5034178;28;20549;-87
2023/10/19 03:18:05;;;;;;;1.80;1.70;;;22.80;67.00;;;;;;5034676;28;20447;-86
2023/10/19 03:20:33;;;;;;;1.50;1.33;;;22.80;67.10;;;;;;5034462;28;20778;-85
2023/10/19 03:23:01;;;;;;;1.60;1.40;;;22.80;67.10;;;;;;5034392;28;20929;-87
2023/10/19 03:28:12;;;;;;;1.60;1.40;;;22.80;67.10;;;;;;5034268;28;20430;-86
2023/10/19 03:30:41;;;;;;;1.40;1.20;;;22.80;67.10;;;;;;5034239;28;20933;-87
2023/10/19 03:33:08;;;;;;;1.40;1.30;;;22.80;68.00;;;;;;5033982;28;20493;-86
2023/10/19 03:35:38;;;;;;;1.30;1.20;;;22.80;67.20;;;;;;5033793;28;20434;-85
2023/10/19 03:38:08;;;;;;;1.77;1.67;;;22.80;67.10;;;;;;5034189;28;20442;-86
2023/10/19 03:40:38;;;;;;;1.67;1.27;;;22.80;67.20;;;;;;5034830;28;20525;-86
2023/10/19 03:43:16;;;;;;;1.17;1.07;;;22.80;67.10;;;;;;5034289;28;20529;-86
2023/10/19 03:45:50;;;;;;;1.20;1.10;;;22.80;67.20;;;;;;5033596;28;20461;-86
2023/10/19 03:48:23;;;;;;;1.63;1.27;;;22.80;67.20;;;;;;5033930;28;20805;-86
2023/10/19 03:50:55;;;;;;;1.43;1.30;;;22.80;67.20;;;;;;5033927;28;20492;-89
2023/10/19 03:53:22;;;;;;;1.30;1.13;;;22.80;67.20;;;;;;5034013;28;20482;-88
2023/10/19 03:55:49;;;;;;;1.50;1.20;;;22.80;67.20;;;;;;5033586;28;20521;-86
2023/10/19 03:58:17;;;;;;;1.30;1.20;;;22.80;67.20;;;;;;5033768;28;20536;-86
2023/10/19 04:00:45;;;;;;;1.50;1.37;;;22.80;67.30;;;;;;5033865;28;20451;-86
2023/10/19 04:03:12;;;;;;;1.30;1.20;;;22.80;67.30;;;;;;5033824;28;20443;-87
2023/10/19 04:05:41;;;;;;;1.87;1.40;;;22.80;67.20;;;;;;5033290;28;20829;-85
2023/10/19 04:08:12;;;;;;;1.50;1.40;;;22.80;67.30;;;;;;5036237;28;20434;-85
2023/10/19 04:10:44;;;;;;;1.10;1.00;;;22.80;67.30;;;;;;5037495;28;20438;-85
2023/10/19 04:13:11;;;;;;;1.50;1.40;;;22.80;68.10;;;;;;5037437;28;20496;-86
2023/10/19 04:15:38;;;;;;;1.30;1.20;;;22.80;67.30;;;;;;5037377;28;20492;-88
2023/10/19 04:18:09;;;;;;;1.30;1.07;;;22.80;67.30;;;;;;5037265;28;20438;-89
2023/10/19 04:20:42;;;;;;;1.30;1.10;;;22.80;67.30;;;;;;5037501;28;20500;-86
2023/10/19 04:23:14;;;;;;;1.20;1.00;;;22.80;67.40;;;;;;5037502;28;20430;-92
2023/10/19 04:25:40;;;;;;;1.77;1.00;;;22.80;67.30;;;;;;5017447;28;20852;-86
2023/10/19 04:28:09;;;;;;;1.17;1.00;;;22.80;67.40;;;;;;5017501;28;20938;-88
2023/10/19 04:30:37;;;;;;;1.10;1.00;;;22.80;67.40;;;;;;5017592;28;20439;-86
2023/10/19 04:33:08;;;;;;;1.37;1.27;;;22.80;67.40;;;;;;5017445;28;21155;-94
2023/10/19 04:35:37;;;;;;;1.20;0.97;;;22.80;67.40;;;;;;5017530;28;20497;-88
2023/10/19 04:38:07;;;;;;;1.30;1.10;;;22.80;67.50;;;;;;5017137;28;20430;-90
2023/10/19 04:40:35;;;;;;;1.30;1.20;;;22.80;67.40;;;;;;5017608;28;20494;-85
2023/10/19 04:43:05;;;;;;;1.23;1.00;;;22.80;67.40;;;;;;5026504;28;20438;-92
2023/10/19 04:45:31;;;;;;;1.40;1.30;;;22.80;67.50;;;;;;5036704;28;20812;-86
2023/10/19 04:47:58;;;;;;;1.30;1.10;;;22.80;67.50;;;;;;5037060;28;20436;-89
2023/10/19 04:50:25;;;;;;;1.40;1.20;;;22.80;67.50;;;;;;5036703;28;20437;-86
2023/10/19 04:52:53;;;;;;;1.17;1.00;;;22.80;67.40;;;;;;5037045;28;20841;-88
2023/10/19 04:55:20;;;;;;;1.40;1.30;;;22.80;67.50;;;;;;5037223;28;20438;-90
2023/10/19 04:57:47;;;;;;;1.30;1.20;;;22.80;67.50;;;;;;5037034;28;20803;-95
2023/10/19 05:00:15;;;;;;;1.30;1.20;;;22.80;67.50;;;;;;5036859;28;20553;-85
2023/10/19 05:02:42;;;;;;;1.40;1.10;;;22.80;67.60;;;;;;5036743;28;20539;-94
2023/10/19 05:05:09;;;;;;;1.30;1.20;;;22.90;67.60;;;;;;5036683;28;20469;-86
2023/10/19 05:07:36;;;;;;;1.30;1.00;;;22.80;67.60;;;;;;5037030;28;20434;-86
2023/10/19 05:10:06;;;;;;;1.10;0.97;;;22.80;67.50;;;;;;5037002;28;20435;-85
2023/10/19 05:12:33;;;;;;;1.50;1.20;;;22.80;67.60;;;;;;5036560;28;20537;-93
2023/10/19 05:15:00;;;;;;;1.30;0.90;;;22.80;67.60;;;;;;5036583;28;20442;-87
2023/10/19 05:17:27;;;;;;;1.13;1.03;;;22.80;67.60;;;;;;5036630;28;20434;-85
2023/10/19 05:19:53;;;;;;;1.30;1.10;;;22.80;67.60;;;;;;5035101;28;20441;-86
2023/10/19 05:22:21;;;;;;;1.20;1.00;;;22.80;67.60;;;;;;5036364;28;20446;-86
2023/10/19 05:24:48;;;;;;;1.37;1.27;;;22.80;67.60;;;;;;5036556;28;20434;-88
2023/10/19 05:27:17;;;;;;;1.30;1.00;;;22.80;67.60;;;;;;5036720;28;20952;-86
2023/10/19 05:29:44;;;;;;;1.20;1.10;;;22.80;67.60;;;;;;5036863;28;20533;-85
2023/10/19 05:32:12;;;;;;;1.23;1.13;;;22.80;67.60;;;;;;5038358;28;20440;-85
2023/10/19 05:34:38;;;;;;;1.33;1.20;;;22.80;67.60;;;;;;5037012;28;20486;-95
2023/10/19 05:37:05;;;;;;;1.20;1.00;;;22.80;67.60;;;;;;5038911;28;20444;-85
2023/10/19 05:39:33;;;;;;;1.20;1.00;;;22.80;67.60;;;;;;5038352;28;20439;-86
2023/10/19 05:42:01;;;;;;;1.30;1.10;;;22.80;67.60;;;;;;5036647;28;20438;-96
2023/10/19 05:44:30;;;;;;;1.20;1.10;;;22.80;67.60;;;;;;5039230;28;20415;-85
2023/10/19 05:46:58;;;;;;;1.27;1.00;;;22.80;67.60;;;;;;5035679;28;20466;-85
2023/10/19 05:49:25;;;;;;;1.40;1.10;;;22.80;67.60;;;;;;5035794;28;20529;-89
2023/10/19 05:51:52;;;;;;;1.10;0.83;;;22.80;67.70;;;;;;5036981;28;20461;-85
2023/10/19 05:54:19;;;;;;;1.90;1.10;;;22.80;67.60;;;;;;5035450;28;20482;-96
2023/10/19 05:56:46;;;;;;;2.40;1.23;;;22.80;67.50;;;;;;5035150;28;20521;-86
2023/10/19 05:59:14;;;;;;;1.60;1.20;;;22.90;67.60;;;;;;5035600;28;20442;-95
2023/10/19 06:01:46;;;;;;;1.40;1.30;;;22.80;67.50;;;;;;5035350;28;20446;-85
2023/10/19 06:04:13;;;;;;;1.83;1.13;;;22.80;67.60;;;;;;5035388;28;20469;-86
2023/10/19 06:06:41;;;;;;;1.20;1.10;;;22.80;67.60;;;;;;5035428;28;20928;-85
2023/10/19 06:09:09;;;;;;;1.47;1.10;;;22.80;67.70;;;;;;5035705;28;20446;-85
2023/10/19 06:11:37;;;;;;;1.50;1.10;;;22.80;67.80;;;;;;5035459;28;20449;-85
2023/10/19 06:14:06;;;;;;;1.73;1.10;;;22.80;68.00;;;;;;5034738;28;20486;-85
2023/10/19 06:16:33;;;;;;;1.23;1.10;;;22.80;68.80;;;;;;5034882;28;20861;-95
2023/10/19 06:19:02;;;;;;;1.30;1.20;;;22.80;68.00;;;;;;5034729;28;20533;-95
2023/10/19 06:21:30;;;;;;;1.30;1.13;;;22.90;68.10;;;;;;5035087;28;20450;-85
2023/10/19 06:23:56;;;;;;;1.50;1.00;;;22.80;68.00;;;;;;5035207;28;20516;-89
2023/10/19 06:26:23;;;;;;;1.50;1.40;;;22.80;68.10;;;;;;5035179;28;20449;-86
2023/10/19 06:28:50;;;;;;;1.33;1.20;;;22.80;68.10;;;;;;5034950;28;20902;-85
2023/10/19 06:31:19;;;;;;;1.30;1.00;;;22.80;68.10;;;;;;5035125;28;20537;-85
2023/10/19 06:33:45;;;;;;;1.50;0.80;;;22.80;68.10;;;;;;5035005;28;20496;-85
2023/10/19 06:36:14;;;;;;;1.30;1.20;;;22.80;68.20;;;;;;5042054;28;20514;-86
2023/10/19 06:38:42;;;;;;;1.33;0.97;;;22.80;68.20;;;;;;5040446;28;20435;-85
2023/10/19 06:41:12;;;;;;;1.20;0.90;;;22.80;68.30;;;;;;5040536;28;20442;-85
2023/10/19 06:43:39;;;;;;;1.40;1.00;;;22.80;68.30;;;;;;5036060;28;20466;-96
2023/10/19 06:46:07;;;;;;;1.50;1.13;;;22.80;68.20;;;;;;5035941;28;20818;-86
2023/10/19 06:48:34;;;;;;;2.97;0.90;;;22.80;68.30;;;;;;5035854;28;20534;-85
2023/10/19 06:51:00;;;;;;;1.67;1.57;;;22.80;68.40;;;;;;5034537;28;20808;-85
2023/10/19 06:53:29;;;;;;;1.93;1.00;;;22.80;68.50;;;;;;5034193;28;20829;-85
2023/10/19 06:55:55;;;;;;;1.20;1.00;;;22.80;68.50;;;;;;5033762;28;20473;-85
2023/10/19 06:58:26;;;;;;;1.60;1.00;;;22.80;68.50;;;;;;5032893;28;20457;-84
2023/10/19 07:00:59;;;;;;;2.87;1.93;;;22.80;69.10;;;;;;5033768;28;20944;-87
2023/10/19 07:03:28;;;;;;;7.50;3.33;;;22.80;69.40;;;;;;5033427;28;20815;-87
2023/10/19 07:05:55;;;;;;;9.97;3.53;;;22.80;69.80;;;;;;5020969;28;20470;-87
2023/10/19 07:08:22;;;;;;;5.93;2.60;;;22.80;69.90;;;;;;5034157;28;20450;-87
2023/10/19 07:10:50;;;;;;;5.30;3.00;;;22.80;70.00;;;;;;5033912;28;20450;-87
2023/10/19 07:13:17;;;;;;;6.40;2.43;;;22.80;70.10;;;;;;5033915;28;20808;-86
2023/10/19 07:15:46;;;;;;;6.50;2.30;;;22.80;70.30;;;;;;5033667;28;20588;-86
2023/10/19 07:18:13;;;;;;;8.10;2.53;;;22.80;70.30;;;;;;5033570;28;20426;-86
2023/10/19 07:20:42;;;;;;;8.30;2.50;;;22.80;70.50;;;;;;5033793;28;20509;-86
2023/10/19 07:23:18;;;;;;;8.83;2.43;;;22.80;70.50;;;;;;5033583;28;20430;-84
2023/10/19 07:25:45;;;;;;;6.97;2.83;;;22.80;70.50;;;;;;5033494;28;20442;-85
2023/10/19 07:28:14;;;;;;;6.97;2.50;;;22.80;70.50;;;;;;5033190;28;20864;-85
2023/10/19 07:30:42;;;;;;;4.93;2.23;;;22.80;70.70;;;;;;5033408;28;20504;-85
2023/10/19 07:33:09;;;;;;;4.90;2.17;;;22.80;70.70;;;;;;5033653;28;20434;-85
2023/10/19 07:35:38;;;;;;;4.20;2.50;;;22.80;71.00;;;;;;5033509;28;20449;-85
2023/10/19 07:38:07;;;;;;;7.10;3.33;;;22.80;71.00;;;;;;5033571;28;20442;-84
